KNQX/NQX METAR and TAF weather

Enter ICAO airport designator
Station Type Date Time Source
KNQX METAR 2020/04/07 07:53 UTC NOAA

KNQX 070753Z AUTO 31008KT 10SM CLR 25/22 A3001 RMK AO2 SLP160 T02500217 $


Station Type Date Time Source
KNQX Decoded METAR 2020/04/07 07:53 UTC NOAA

KEY WEST NAVAL AIR STATION, FL, United States (KNQX) 24-35N 81-41W 6M
Apr 07, 2020 - 03:53 AM EDT / 2020.04.07 0753 UTC
Wind: from the NW (310 degrees) at 9 MPH (8 KT):0
Visibility: 10 mile(s):0
Sky conditions: clear
Temperature: 77.0 F (25.0 C)
Dew Point: 71.1 F (21.7 C)
Relative Humidity: 81%
Pressure (altimeter): 30.01 in. Hg (1016 hPa)
ob: KNQX 070753Z AUTO 31008KT 10SM CLR 25/22 A3001 RMK AO2 SLP160 T02500217
cycle: 8

Station Type Date Time Source
KNQX TAF 2020/04/07 07:03 UTC NOAA

TAF KNQX 0707/0807 VRB06KT 9999 SCT025 BKN050 QNH2994INS AUTOMATED SENSOR METWATCH 0707 TIL 0711 T25/0710Z T29/0719Z FN00205

Example: see airport list